sensor_id;sensor_type;location;lat;lon;timestamp;temperature;humidity
35796;DHT22;21916;52.428;13.302;2022-11-15T00:01:55;5.90;99.90
35796;DHT22;21916;52.428;13.302;2022-11-15T00:04:39;5.90;99.90
35796;DHT22;21916;52.428;13.302;2022-11-15T00:07:24;5.80;99.90
35796;DHT22;21916;52.428;13.302;2022-11-15T00:10:09;5.90;99.90
35796;DHT22;21916;52.428;13.302;2022-11-15T00:12:53;5.90;99.90
35796;DHT22;21916;52.428;13.302;2022-11-15T00:15:39;6.00;99.90
35796;DHT22;21916;52.428;13.302;2022-11-15T00:18:25;5.90;99.90
35796;DHT22;21916;52.428;13.302;2022-11-15T00:21:11;6.00;99.90
35796;DHT22;21916;52.428;13.302;2022-11-15T00:23:57;5.90;99.90
35796;DHT22;21916;52.428;13.302;2022-11-15T00:26:42;5.90;99.90
35796;DHT22;21916;52.428;13.302;2022-11-15T00:29:27;5.90;99.90
35796;DHT22;21916;52.428;13.302;2022-11-15T00:32:12;5.80;99.90
35796;DHT22;21916;52.428;13.302;2022-11-15T00:34:56;5.70;99.90
35796;DHT22;21916;52.428;13.302;2022-11-15T00:37:40;5.70;99.90
35796;DHT22;21916;52.428;13.302;2022-11-15T00:40:25;5.70;99.90
35796;DHT22;21916;52.428;13.302;2022-11-15T00:43:10;5.70;99.90
35796;DHT22;21916;52.428;13.302;2022-11-15T00:45:54;5.60;99.90
35796;DHT22;21916;52.428;13.302;2022-11-15T00:48:39;5.60;99.90
35796;DHT22;21916;52.428;13.302;2022-11-15T00:51:24;5.60;99.90
35796;DHT22;21916;52.428;13.302;2022-11-15T00:54:08;5.60;99.90
35796;DHT22;21916;52.428;13.302;2022-11-15T00:56:53;5.60;99.90
35796;DHT22;21916;52.428;13.302;2022-11-15T00:59:37;5.60;99.90
35796;DHT22;21916;52.428;13.302;2022-11-15T01:02:22;5.60;99.90
35796;DHT22;21916;52.428;13.302;2022-11-15T01:05:07;5.60;99.90
35796;DHT22;21916;52.428;13.302;2022-11-15T01:07:53;5.60;99.90
35796;DHT22;21916;52.428;13.302;2022-11-15T01:10:47;5.60;99.90
35796;DHT22;21916;52.428;13.302;2022-11-15T01:13:32;5.60;99.90
35796;DHT22;21916;52.428;13.302;2022-11-15T01:16:18;5.60;99.90
35796;DHT22;21916;52.428;13.302;2022-11-15T01:19:03;5.60;99.90
35796;DHT22;21916;52.428;13.302;2022-11-15T01:21:51;5.60;99.90
35796;DHT22;21916;52.428;13.302;2022-11-15T01:24:36;5.70;99.90
35796;DHT22;21916;52.428;13.302;2022-11-15T01:27:23;5.60;99.90
35796;DHT22;21916;52.428;13.302;2022-11-15T01:30:08;5.60;99.90
35796;DHT22;21916;52.428;13.302;2022-11-15T01:32:54;5.60;99.90
35796;DHT22;21916;52.428;13.302;2022-11-15T01:35:39;5.70;99.90
35796;DHT22;21916;52.428;13.302;2022-11-15T01:38:24;5.70;99.90
35796;DHT22;21916;52.428;13.302;2022-11-15T01:41:19;5.60;99.90
35796;DHT22;21916;52.428;13.302;2022-11-15T01:44:56;5.60;99.90
35796;DHT22;21916;52.428;13.302;2022-11-15T01:47:37;5.70;99.90
35796;DHT22;21916;52.428;13.302;2022-11-15T01:50:27;5.70;99.90
35796;DHT22;21916;52.428;13.302;2022-11-15T01:53:14;5.60;99.90
35796;DHT22;21916;52.428;13.302;2022-11-15T01:56:03;5.70;99.90
35796;DHT22;21916;52.428;13.302;2022-11-15T01:58:50;5.70;99.90
35796;DHT22;21916;52.428;13.302;2022-11-15T02:01:35;5.80;99.90
35796;DHT22;21916;52.428;13.302;2022-11-15T02:04:31;5.60;99.90
35796;DHT22;21916;52.428;13.302;2022-11-15T02:07:18;5.60;99.90
35796;DHT22;21916;52.428;13.302;2022-11-15T02:10:18;5.60;99.90
35796;DHT22;21916;52.428;13.302;2022-11-15T02:13:03;5.60;99.90
35796;DHT22;21916;52.428;13.302;2022-11-15T02:25:14;5.50;99.90
35796;DHT22;21916;52.428;13.302;2022-11-15T02:31:03;5.40;99.90
35796;DHT22;21916;52.428;13.302;2022-11-15T02:42:41;5.30;99.90
35796;DHT22;21916;52.428;13.302;2022-11-15T02:45:56;5.30;99.90
35796;DHT22;21916;52.428;13.302;2022-11-15T02:48:43;5.30;99.90
35796;DHT22;21916;52.428;13.302;2022-11-15T02:51:29;5.20;99.90
35796;DHT22;21916;52.428;13.302;2022-11-15T02:54:18;5.20;99.90
35796;DHT22;21916;52.428;13.302;2022-11-15T02:57:07;5.30;99.90
35796;DHT22;21916;52.428;13.302;2022-11-15T03:00:20;5.30;99.90
35796;DHT22;21916;52.428;13.302;2022-11-15T03:03:18;5.30;99.90
35796;DHT22;21916;52.428;13.302;2022-11-15T03:09:42;5.40;99.90
35796;DHT22;21916;52.428;13.302;2022-11-15T03:13:07;5.40;99.90
35796;DHT22;21916;52.428;13.302;2022-11-15T03:16:20;5.30;99.90
35796;DHT22;21916;52.428;13.302;2022-11-15T03:22:09;5.30;99.90
35796;DHT22;21916;52.428;13.302;2022-11-15T03:24:58;5.30;99.90
35796;DHT22;21916;52.428;13.302;2022-11-15T03:27:51;5.30;99.90
35796;DHT22;21916;52.428;13.302;2022-11-15T03:30:38;5.30;99.90
35796;DHT22;21916;52.428;13.302;2022-11-15T03:33:23;5.30;99.90
35796;DHT22;21916;52.428;13.302;2022-11-15T03:36:08;5.20;99.90
35796;DHT22;21916;52.428;13.302;2022-11-15T03:38:56;5.30;99.90
35796;DHT22;21916;52.428;13.302;2022-11-15T03:42:09;5.30;99.90
35796;DHT22;21916;52.428;13.302;2022-11-15T03:47:54;5.30;99.90
35796;DHT22;21916;52.428;13.302;2022-11-15T03:50:43;5.20;99.90
35796;DHT22;21916;52.428;13.302;2022-11-15T03:53:29;5.20;99.90
35796;DHT22;21916;52.428;13.302;2022-11-15T03:56:14;5.20;99.90
35796;DHT22;21916;52.428;13.302;2022-11-15T03:58:59;5.20;99.90
35796;DHT22;21916;52.428;13.302;2022-11-15T04:01:45;5.30;99.90
35796;DHT22;21916;52.428;13.302;2022-11-15T04:04:30;5.20;99.90
35796;DHT22;21916;52.428;13.302;2022-11-15T04:07:15;5.20;99.90
35796;DHT22;21916;52.428;13.302;2022-11-15T04:09:59;5.30;99.90
35796;DHT22;21916;52.428;13.302;2022-11-15T04:12:47;5.30;99.90
35796;DHT22;21916;52.428;13.302;2022-11-15T04:15:31;5.30;99.90
35796;DHT22;21916;52.428;13.302;2022-11-15T04:18:16;5.30;99.90
35796;DHT22;21916;52.428;13.302;2022-11-15T04:21:01;5.30;99.90
35796;DHT22;21916;52.428;13.302;2022-11-15T04:24:04;5.30;99.90
35796;DHT22;21916;52.428;13.302;2022-11-15T04:26:49;5.30;99.90
35796;DHT22;21916;52.428;13.302;2022-11-15T04:29:33;5.30;99.90
35796;DHT22;21916;52.428;13.302;2022-11-15T04:32:18;5.20;99.90
35796;DHT22;21916;52.428;13.302;2022-11-15T04:35:03;5.20;99.90
35796;DHT22;21916;52.428;13.302;2022-11-15T04:37:48;5.20;99.90
35796;DHT22;21916;52.428;13.302;2022-11-15T04:40:33;5.20;99.90
35796;DHT22;21916;52.428;13.302;2022-11-15T04:43:18;5.20;99.90
35796;DHT22;21916;52.428;13.302;2022-11-15T04:46:03;5.30;99.90
35796;DHT22;21916;52.428;13.302;2022-11-15T04:48:47;5.20;99.90
35796;DHT22;21916;52.428;13.302;2022-11-15T04:51:31;5.20;99.90
35796;DHT22;21916;52.428;13.302;2022-11-15T04:54:16;5.10;99.90
35796;DHT22;21916;52.428;13.302;2022-11-15T04:57:01;5.10;99.90
35796;DHT22;21916;52.428;13.302;2022-11-15T04:59:46;5.10;99.90
35796;DHT22;21916;52.428;13.302;2022-11-15T05:02:30;5.10;99.90
35796;DHT22;21916;52.428;13.302;2022-11-15T05:05:35;5.10;99.90
35796;DHT22;21916;52.428;13.302;2022-11-15T05:08:19;5.10;99.90
35796;DHT22;21916;52.428;13.302;2022-11-15T05:11:04;5.10;99.90
35796;DHT22;21916;52.428;13.302;2022-11-15T05:13:49;5.20;99.90
35796;DHT22;21916;52.428;13.302;2022-11-15T05:16:35;5.30;99.90
35796;DHT22;21916;52.428;13.302;2022-11-15T05:19:20;5.30;99.90
35796;DHT22;21916;52.428;13.302;2022-11-15T05:22:04;5.30;99.90
35796;DHT22;21916;52.428;13.302;2022-11-15T05:24:49;5.30;99.90
35796;DHT22;21916;52.428;13.302;2022-11-15T05:27:34;5.30;99.90
35796;DHT22;21916;52.428;13.302;2022-11-15T05:30:19;5.30;99.90
35796;DHT22;21916;52.428;13.302;2022-11-15T05:33:03;5.40;99.90
35796;DHT22;21916;52.428;13.302;2022-11-15T05:35:57;5.30;99.90
35796;DHT22;21916;52.428;13.302;2022-11-15T05:38:46;5.30;99.90
35796;DHT22;21916;52.428;13.302;2022-11-15T05:44:20;5.30;99.90
35796;DHT22;21916;52.428;13.302;2022-11-15T05:47:06;5.30;99.90
35796;DHT22;21916;52.428;13.302;2022-11-15T05:49:53;5.20;99.90
35796;DHT22;21916;52.428;13.302;2022-11-15T05:52:38;5.20;99.90
35796;DHT22;21916;52.428;13.302;2022-11-15T05:55:23;5.20;99.90
35796;DHT22;21916;52.428;13.302;2022-11-15T05:58:07;5.20;99.90
35796;DHT22;21916;52.428;13.302;2022-11-15T06:00:52;5.20;99.90
35796;DHT22;21916;52.428;13.302;2022-11-15T06:03:38;5.20;99.90
35796;DHT22;21916;52.428;13.302;2022-11-15T06:06:23;5.20;99.90
35796;DHT22;21916;52.428;13.302;2022-11-15T06:09:07;5.20;99.90
35796;DHT22;21916;52.428;13.302;2022-11-15T06:11:52;5.20;99.90
35796;DHT22;21916;52.428;13.302;2022-11-15T06:14:36;5.20;99.90
35796;DHT22;21916;52.428;13.302;2022-11-15T06:17:21;5.20;99.90
35796;DHT22;21916;52.428;13.302;2022-11-15T06:20:05;5.20;99.90
35796;DHT22;21916;52.428;13.302;2022-11-15T06:22:50;5.20;99.90
35796;DHT22;21916;52.428;13.302;2022-11-15T06:25:34;5.30;99.90
35796;DHT22;21916;52.428;13.302;2022-11-15T06:28:19;5.20;99.90
35796;DHT22;21916;52.428;13.302;2022-11-15T06:31:13;5.30;99.90
35796;DHT22;21916;52.428;13.302;2022-11-15T06:33:58;5.30;99.90
35796;DHT22;21916;52.428;13.302;2022-11-15T06:36:42;5.30;99.90
35796;DHT22;21916;52.428;13.302;2022-11-15T06:39:27;5.30;99.90
35796;DHT22;21916;52.428;13.302;2022-11-15T06:42:12;5.30;99.90
35796;DHT22;21916;52.428;13.302;2022-11-15T06:44:56;5.30;99.90
35796;DHT22;21916;52.428;13.302;2022-11-15T06:47:45;5.30;99.90
35796;DHT22;21916;52.428;13.302;2022-11-15T06:50:31;5.30;99.90
35796;DHT22;21916;52.428;13.302;2022-11-15T06:53:15;5.40;99.90
35796;DHT22;21916;52.428;13.302;2022-11-15T06:56:05;5.30;99.90
35796;DHT22;21916;52.428;13.302;2022-11-15T06:58:50;5.30;99.90
35796;DHT22;21916;52.428;13.302;2022-11-15T07:01:34;5.40;99.90
35796;DHT22;21916;52.428;13.302;2022-11-15T07:04:19;5.40;99.90
35796;DHT22;21916;52.428;13.302;2022-11-15T07:07:04;5.40;99.90
35796;DHT22;21916;52.428;13.302;2022-11-15T07:09:49;5.40;99.90
35796;DHT22;21916;52.428;13.302;2022-11-15T07:12:34;5.50;99.90
35796;DHT22;21916;52.428;13.302;2022-11-15T07:15:21;5.60;99.90
35796;DHT22;21916;52.428;13.302;2022-11-15T07:18:06;5.60;99.90
35796;DHT22;21916;52.428;13.302;2022-11-15T07:20:51;5.80;99.90
35796;DHT22;21916;52.428;13.302;2022-11-15T07:23:36;5.80;99.90
35796;DHT22;21916;52.428;13.302;2022-11-15T07:26:25;5.90;99.90
35796;DHT22;21916;52.428;13.302;2022-11-15T07:29:09;6.00;99.90
35796;DHT22;21916;52.428;13.302;2022-11-15T07:31:54;6.00;99.90
35796;DHT22;21916;52.428;13.302;2022-11-15T07:34:39;6.10;99.90
35796;DHT22;21916;52.428;13.302;2022-11-15T07:37:23;6.20;99.90
35796;DHT22;21916;52.428;13.302;2022-11-15T07:40:09;6.30;99.90
35796;DHT22;21916;52.428;13.302;2022-11-15T07:43:00;6.50;99.90
35796;DHT22;21916;52.428;13.302;2022-11-15T07:45:45;6.60;99.90
35796;DHT22;21916;52.428;13.302;2022-11-15T07:48:30;6.70;99.90
35796;DHT22;21916;52.428;13.302;2022-11-15T07:51:16;6.70;99.90
35796;DHT22;21916;52.428;13.302;2022-11-15T07:54:01;6.80;99.90
35796;DHT22;21916;52.428;13.302;2022-11-15T07:56:46;7.10;99.90
35796;DHT22;21916;52.428;13.302;2022-11-15T07:59:30;7.10;99.90
35796;DHT22;21916;52.428;13.302;2022-11-15T08:02:15;7.30;99.90
35796;DHT22;21916;52.428;13.302;2022-11-15T08:05:02;7.30;99.90
35796;DHT22;21916;52.428;13.302;2022-11-15T08:07:46;7.40;99.90
35796;DHT22;21916;52.428;13.302;2022-11-15T08:10:31;7.60;99.90
35796;DHT22;21916;52.428;13.302;2022-11-15T08:13:16;7.60;99.90
35796;DHT22;21916;52.428;13.302;2022-11-15T08:16:04;7.80;99.90
35796;DHT22;21916;52.428;13.302;2022-11-15T08:18:52;7.90;99.90
35796;DHT22;21916;52.428;13.302;2022-11-15T08:21:36;8.00;99.90
35796;DHT22;21916;52.428;13.302;2022-11-15T08:24:21;8.00;99.90
35796;DHT22;21916;52.428;13.302;2022-11-15T08:27:06;8.10;99.90
35796;DHT22;21916;52.428;13.302;2022-11-15T08:29:58;8.10;99.90
35796;DHT22;21916;52.428;13.302;2022-11-15T08:32:43;8.20;99.90
35796;DHT22;21916;52.428;13.302;2022-11-15T08:35:28;8.30;99.90
35796;DHT22;21916;52.428;13.302;2022-11-15T08:38:13;8.40;99.90
35796;DHT22;21916;52.428;13.302;2022-11-15T08:41:04;8.50;99.90
35796;DHT22;21916;52.428;13.302;2022-11-15T08:43:50;8.60;99.90
35796;DHT22;21916;52.428;13.302;2022-11-15T08:46:34;8.70;99.90
35796;DHT22;21916;52.428;13.302;2022-11-15T08:49:19;8.80;99.90
35796;DHT22;21916;52.428;13.302;2022-11-15T08:52:03;8.80;99.90
35796;DHT22;21916;52.428;13.302;2022-11-15T08:54:48;8.90;99.90
35796;DHT22;21916;52.428;13.302;2022-11-15T08:57:32;9.00;99.90
35796;DHT22;21916;52.428;13.302;2022-11-15T09:00:18;9.00;99.90
35796;DHT22;21916;52.428;13.302;2022-11-15T09:03:04;9.00;99.90
35796;DHT22;21916;52.428;13.302;2022-11-15T09:05:54;9.10;99.90
35796;DHT22;21916;52.428;13.302;2022-11-15T09:08:39;9.30;99.90
35796;DHT22;21916;52.428;13.302;2022-11-15T09:11:24;9.40;99.90
35796;DHT22;21916;52.428;13.302;2022-11-15T09:14:11;9.50;99.90
35796;DHT22;21916;52.428;13.302;2022-11-15T09:16:56;9.60;99.90
35796;DHT22;21916;52.428;13.302;2022-11-15T09:19:40;9.70;99.90
35796;DHT22;21916;52.428;13.302;2022-11-15T09:22:25;9.90;99.90
35796;DHT22;21916;52.428;13.302;2022-11-15T09:25:09;9.90;99.90
35796;DHT22;21916;52.428;13.302;2022-11-15T09:27:55;9.80;99.90
35796;DHT22;21916;52.428;13.302;2022-11-15T09:30:39;10.00;99.90
35796;DHT22;21916;52.428;13.302;2022-11-15T09:33:24;10.20;99.90
35796;DHT22;21916;52.428;13.302;2022-11-15T09:36:09;10.40;99.90
35796;DHT22;21916;52.428;13.302;2022-11-15T09:38:54;10.50;99.90
35796;DHT22;21916;52.428;13.302;2022-11-15T09:41:56;10.70;99.90
35796;DHT22;21916;52.428;13.302;2022-11-15T09:51:55;11.50;99.90
35796;DHT22;21916;52.428;13.302;2022-11-15T09:56:50;13.30;99.90
35796;DHT22;21916;52.428;13.302;2022-11-15T10:04:34;15.10;99.90
35796;DHT22;21916;52.428;13.302;2022-11-15T10:07:19;16.00;99.90
35796;DHT22;21916;52.428;13.302;2022-11-15T10:10:01;16.80;99.90
35796;DHT22;21916;52.428;13.302;2022-11-15T10:12:29;17.40;99.90
35796;DHT22;21916;52.428;13.302;2022-11-15T10:15:05;17.80;99.90
35796;DHT22;21916;52.428;13.302;2022-11-15T10:20:25;18.90;99.90
35796;DHT22;21916;52.428;13.302;2022-11-15T10:23:05;19.20;98.30
35796;DHT22;21916;52.428;13.302;2022-11-15T10:25:33;19.10;98.80
35796;DHT22;21916;52.428;13.302;2022-11-15T10:28:14;19.60;98.20
35796;DHT22;21916;52.428;13.302;2022-11-15T10:30:43;19.80;98.50
35796;DHT22;21916;52.428;13.302;2022-11-15T10:41:38;22.30;94.60
35796;DHT22;21916;52.428;13.302;2022-11-15T10:46:44;23.10;92.40
35796;DHT22;21916;52.428;13.302;2022-11-15T10:49:17;23.40;91.40
35796;DHT22;21916;52.428;13.302;2022-11-15T10:51:51;23.60;90.90
35796;DHT22;21916;52.428;13.302;2022-11-15T10:56:51;23.90;90.50
35796;DHT22;21916;52.428;13.302;2022-11-15T10:59:29;24.80;89.10
35796;DHT22;21916;52.428;13.302;2022-11-15T11:01:56;25.00;88.30
35796;DHT22;21916;52.428;13.302;2022-11-15T11:04:22;25.00;86.40
35796;DHT22;21916;52.428;13.302;2022-11-15T11:06:58;25.70;85.60
35796;DHT22;21916;52.428;13.302;2022-11-15T11:09:37;26.10;84.80
35796;DHT22;21916;52.428;13.302;2022-11-15T11:12:06;26.20;83.70
35796;DHT22;21916;52.428;13.302;2022-11-15T11:14:37;26.50;82.00
35796;DHT22;21916;52.428;13.302;2022-11-15T11:17:10;26.30;82.10
35796;DHT22;21916;52.428;13.302;2022-11-15T11:22:36;26.80;79.60
35796;DHT22;21916;52.428;13.302;2022-11-15T11:30:55;25.40;80.40
35796;DHT22;21916;52.428;13.302;2022-11-15T11:33:24;26.10;80.10
35796;DHT22;21916;52.428;13.302;2022-11-15T11:47:02;27.60;76.50
35796;DHT22;21916;52.428;13.302;2022-11-15T11:50:23;27.80;75.60
35796;DHT22;21916;52.428;13.302;2022-11-15T11:52:28;28.30;74.20
35796;DHT22;21916;52.428;13.302;2022-11-15T11:55:01;27.90;74.60
35796;DHT22;21916;52.428;13.302;2022-11-15T12:00:22;29.30;73.10
35796;DHT22;21916;52.428;13.302;2022-11-15T12:03:11;30.00;71.60
35796;DHT22;21916;52.428;13.302;2022-11-15T12:06:02;29.60;70.70
35796;DHT22;21916;52.428;13.302;2022-11-15T12:08:56;30.00;70.30
35796;DHT22;21916;52.428;13.302;2022-11-15T12:11:38;30.20;69.50
35796;DHT22;21916;52.428;13.302;2022-11-15T12:17:13;29.40;69.20
35796;DHT22;21916;52.428;13.302;2022-11-15T12:19:41;30.30;68.60
35796;DHT22;21916;52.428;13.302;2022-11-15T12:22:39;31.10;67.60
35796;DHT22;21916;52.428;13.302;2022-11-15T12:25:29;30.80;66.80
35796;DHT22;21916;52.428;13.302;2022-11-15T12:28:38;30.30;66.40
35796;DHT22;21916;52.428;13.302;2022-11-15T12:31:19;30.80;66.60
35796;DHT22;21916;52.428;13.302;2022-11-15T12:33:47;31.00;66.90
35796;DHT22;21916;52.428;13.302;2022-11-15T13:30:57;31.50;62.40
35796;DHT22;21916;52.428;13.302;2022-11-15T13:33:34;30.90;62.30
35796;DHT22;21916;52.428;13.302;2022-11-15T13:36:15;30.60;62.40
35796;DHT22;21916;52.428;13.302;2022-11-15T13:38:44;30.90;62.20
35796;DHT22;21916;52.428;13.302;2022-11-15T13:41:20;31.10;61.80
35796;DHT22;21916;52.428;13.302;2022-11-15T13:43:49;30.90;62.30
35796;DHT22;21916;52.428;13.302;2022-11-15T13:46:33;30.70;62.50
35796;DHT22;21916;52.428;13.302;2022-11-15T13:49:04;30.80;62.10
35796;DHT22;21916;52.428;13.302;2022-11-15T13:56:32;30.00;62.80
35796;DHT22;21916;52.428;13.302;2022-11-15T13:59:00;29.60;63.00
35796;DHT22;21916;52.428;13.302;2022-11-15T14:01:29;29.20;63.40
35796;DHT22;21916;52.428;13.302;2022-11-15T14:03:58;29.10;64.30
35796;DHT22;21916;52.428;13.302;2022-11-15T14:06:28;28.70;64.50
35796;DHT22;21916;52.428;13.302;2022-11-15T14:11:30;26.40;67.30
35796;DHT22;21916;52.428;13.302;2022-11-15T14:16:36;24.40;70.80
35796;DHT22;21916;52.428;13.302;2022-11-15T14:19:04;23.40;72.20
35796;DHT22;21916;52.428;13.302;2022-11-15T14:21:31;22.60;74.60
35796;DHT22;21916;52.428;13.302;2022-11-15T14:24:18;21.80;76.70
35796;DHT22;21916;52.428;13.302;2022-11-15T14:26:47;21.10;78.40
35796;DHT22;21916;52.428;13.302;2022-11-15T14:29:28;20.40;80.90
35796;DHT22;21916;52.428;13.302;2022-11-15T14:32:18;19.80;83.30
35796;DHT22;21916;52.428;13.302;2022-11-15T14:34:45;19.30;85.20
35796;DHT22;21916;52.428;13.302;2022-11-15T14:37:32;18.80;87.10
35796;DHT22;21916;52.428;13.302;2022-11-15T14:40:02;18.20;88.70
35796;DHT22;21916;52.428;13.302;2022-11-15T14:42:29;17.70;90.10
35796;DHT22;21916;52.428;13.302;2022-11-15T14:44:55;17.50;91.70
35796;DHT22;21916;52.428;13.302;2022-11-15T14:47:21;17.20;92.20
35796;DHT22;21916;52.428;13.302;2022-11-15T14:49:47;16.90;93.10
35796;DHT22;21916;52.428;13.302;2022-11-15T14:52:28;16.70;94.30
35796;DHT22;21916;52.428;13.302;2022-11-15T14:54:55;16.50;95.30
35796;DHT22;21916;52.428;13.302;2022-11-15T14:57:29;16.20;96.40
35796;DHT22;21916;52.428;13.302;2022-11-15T14:59:55;16.10;97.70
35796;DHT22;21916;52.428;13.302;2022-11-15T15:02:24;15.80;98.80
35796;DHT22;21916;52.428;13.302;2022-11-15T15:04:51;15.60;99.90
35796;DHT22;21916;52.428;13.302;2022-11-15T15:07:18;15.20;99.90
35796;DHT22;21916;52.428;13.302;2022-11-15T15:09:44;15.00;99.90
35796;DHT22;21916;52.428;13.302;2022-11-15T15:14:42;14.70;99.90
35796;DHT22;21916;52.428;13.302;2022-11-15T15:17:08;14.40;99.90
35796;DHT22;21916;52.428;13.302;2022-11-15T15:19:34;14.20;99.90
35796;DHT22;21916;52.428;13.302;2022-11-15T15:22:00;14.00;99.90
35796;DHT22;21916;52.428;13.302;2022-11-15T15:24:26;13.80;99.90
35796;DHT22;21916;52.428;13.302;2022-11-15T15:26:51;13.70;99.90
35796;DHT22;21916;52.428;13.302;2022-11-15T15:29:17;13.60;99.90
35796;DHT22;21916;52.428;13.302;2022-11-15T15:31:43;13.40;99.90
35796;DHT22;21916;52.428;13.302;2022-11-15T15:34:09;13.30;99.90
35796;DHT22;21916;52.428;13.302;2022-11-15T15:36:35;13.10;99.90
35796;DHT22;21916;52.428;13.302;2022-11-15T15:39:01;13.00;99.90
35796;DHT22;21916;52.428;13.302;2022-11-15T15:41:27;12.90;99.90
35796;DHT22;21916;52.428;13.302;2022-11-15T15:43:53;12.70;99.90
35796;DHT22;21916;52.428;13.302;2022-11-15T15:46:19;12.60;99.90
35796;DHT22;21916;52.428;13.302;2022-11-15T15:48:46;12.50;99.90
35796;DHT22;21916;52.428;13.302;2022-11-15T15:51:12;12.30;99.90
35796;DHT22;21916;52.428;13.302;2022-11-15T15:53:41;12.30;99.90
35796;DHT22;21916;52.428;13.302;2022-11-15T15:56:08;12.20;99.90
35796;DHT22;21916;52.428;13.302;2022-11-15T15:58:34;12.10;99.90
35796;DHT22;21916;52.428;13.302;2022-11-15T16:01:00;12.10;99.90
35796;DHT22;21916;52.428;13.302;2022-11-15T16:03:26;12.00;99.90
35796;DHT22;21916;52.428;13.302;2022-11-15T16:05:53;11.90;99.90
35796;DHT22;21916;52.428;13.302;2022-11-15T16:08:21;11.80;99.90
35796;DHT22;21916;52.428;13.302;2022-11-15T16:10:48;11.70;99.90
35796;DHT22;21916;52.428;13.302;2022-11-15T16:13:14;11.70;99.90
35796;DHT22;21916;52.428;13.302;2022-11-15T16:15:41;11.70;99.90
35796;DHT22;21916;52.428;13.302;2022-11-15T16:18:14;11.70;99.90
35796;DHT22;21916;52.428;13.302;2022-11-15T16:23:13;11.60;99.90
35796;DHT22;21916;52.428;13.302;2022-11-15T16:25:47;11.50;99.90
35796;DHT22;21916;52.428;13.302;2022-11-15T16:28:19;11.40;99.90
35796;DHT22;21916;52.428;13.302;2022-11-15T16:30:45;11.30;99.90
35796;DHT22;21916;52.428;13.302;2022-11-15T16:33:11;11.20;99.90
35796;DHT22;21916;52.428;13.302;2022-11-15T16:35:37;11.10;99.90
35796;DHT22;21916;52.428;13.302;2022-11-15T16:38:03;11.10;99.90
35796;DHT22;21916;52.428;13.302;2022-11-15T16:40:33;11.10;99.90
35796;DHT22;21916;52.428;13.302;2022-11-15T16:43:00;11.00;99.90
35796;DHT22;21916;52.428;13.302;2022-11-15T16:45:28;11.00;99.90
35796;DHT22;21916;52.428;13.302;2022-11-15T16:47:54;11.00;99.90
35796;DHT22;21916;52.428;13.302;2022-11-15T16:50:26;10.80;99.90
35796;DHT22;21916;52.428;13.302;2022-11-15T16:52:57;10.80;99.90
35796;DHT22;21916;52.428;13.302;2022-11-15T16:55:26;10.70;99.90
35796;DHT22;21916;52.428;13.302;2022-11-15T16:57:53;10.70;99.90
35796;DHT22;21916;52.428;13.302;2022-11-15T17:00:20;10.60;99.90
35796;DHT22;21916;52.428;13.302;2022-11-15T17:02:48;10.50;99.90
35796;DHT22;21916;52.428;13.302;2022-11-15T17:05:16;10.50;99.90
35796;DHT22;21916;52.428;13.302;2022-11-15T17:07:42;10.30;99.90
35796;DHT22;21916;52.428;13.302;2022-11-15T17:10:10;10.30;99.90
35796;DHT22;21916;52.428;13.302;2022-11-15T17:12:37;10.20;99.90
35796;DHT22;21916;52.428;13.302;2022-11-15T17:15:04;10.20;99.90
35796;DHT22;21916;52.428;13.302;2022-11-15T17:17:30;10.10;99.90
35796;DHT22;21916;52.428;13.302;2022-11-15T17:19:56;10.10;99.90
35796;DHT22;21916;52.428;13.302;2022-11-15T17:22:23;10.20;99.90
35796;DHT22;21916;52.428;13.302;2022-11-15T17:24:49;10.10;99.90
35796;DHT22;21916;52.428;13.302;2022-11-15T17:27:15;10.10;99.90
35796;DHT22;21916;52.428;13.302;2022-11-15T17:29:42;10.00;99.90
35796;DHT22;21916;52.428;13.302;2022-11-15T17:32:08;9.90;99.90
35796;DHT22;21916;52.428;13.302;2022-11-15T17:34:34;9.90;99.90
35796;DHT22;21916;52.428;13.302;2022-11-15T17:37:00;9.90;99.90
35796;DHT22;21916;52.428;13.302;2022-11-15T17:39:26;9.80;99.90
35796;DHT22;21916;52.428;13.302;2022-11-15T17:41:51;9.80;99.90
35796;DHT22;21916;52.428;13.302;2022-11-15T17:44:17;9.70;99.90
35796;DHT22;21916;52.428;13.302;2022-11-15T17:46:43;9.60;99.90
35796;DHT22;21916;52.428;13.302;2022-11-15T17:49:09;9.50;99.90
35796;DHT22;21916;52.428;13.302;2022-11-15T17:51:35;9.50;99.90
35796;DHT22;21916;52.428;13.302;2022-11-15T17:54:01;9.40;99.90
35796;DHT22;21916;52.428;13.302;2022-11-15T17:56:28;9.40;99.90
35796;DHT22;21916;52.428;13.302;2022-11-15T17:58:58;9.40;99.90
35796;DHT22;21916;52.428;13.302;2022-11-15T18:01:30;9.40;99.90
35796;DHT22;21916;52.428;13.302;2022-11-15T18:03:57;9.40;99.90
35796;DHT22;21916;52.428;13.302;2022-11-15T18:06:26;9.30;99.90
35796;DHT22;21916;52.428;13.302;2022-11-15T18:08:53;9.30;99.90
35796;DHT22;21916;52.428;13.302;2022-11-15T18:11:27;9.30;99.90
35796;DHT22;21916;52.428;13.302;2022-11-15T18:13:59;9.20;99.90
35796;DHT22;21916;52.428;13.302;2022-11-15T18:16:27;9.20;99.90
35796;DHT22;21916;52.428;13.302;2022-11-15T18:18:55;9.00;99.90
35796;DHT22;21916;52.428;13.302;2022-11-15T18:21:24;9.10;99.90
35796;DHT22;21916;52.428;13.302;2022-11-15T18:23:54;9.10;99.90
35796;DHT22;21916;52.428;13.302;2022-11-15T18:26:22;9.00;99.90
35796;DHT22;21916;52.428;13.302;2022-11-15T18:28:52;8.90;99.90
35796;DHT22;21916;52.428;13.302;2022-11-15T18:31:23;8.90;99.90
35796;DHT22;21916;52.428;13.302;2022-11-15T18:33:50;8.90;99.90
35796;DHT22;21916;52.428;13.302;2022-11-15T18:36:22;8.90;99.90
35796;DHT22;21916;52.428;13.302;2022-11-15T18:38:56;8.80;99.90
35796;DHT22;21916;52.428;13.302;2022-11-15T18:41:23;8.70;99.90
35796;DHT22;21916;52.428;13.302;2022-11-15T18:43:53;8.70;99.90
35796;DHT22;21916;52.428;13.302;2022-11-15T18:46:21;8.60;99.90
35796;DHT22;21916;52.428;13.302;2022-11-15T18:48:49;8.60;99.90
35796;DHT22;21916;52.428;13.302;2022-11-15T18:51:20;8.40;99.90
35796;DHT22;21916;52.428;13.302;2022-11-15T18:53:47;8.50;99.90
35796;DHT22;21916;52.428;13.302;2022-11-15T18:56:18;8.50;99.90
35796;DHT22;21916;52.428;13.302;2022-11-15T18:58:47;8.50;99.90
35796;DHT22;21916;52.428;13.302;2022-11-15T19:01:16;8.40;99.90
35796;DHT22;21916;52.428;13.302;2022-11-15T19:03:44;8.40;99.90
35796;DHT22;21916;52.428;13.302;2022-11-15T19:06:16;8.40;99.90
35796;DHT22;21916;52.428;13.302;2022-11-15T19:08:43;8.30;99.90
35796;DHT22;21916;52.428;13.302;2022-11-15T19:11:12;8.30;99.90
35796;DHT22;21916;52.428;13.302;2022-11-15T19:13:38;8.20;99.90
35796;DHT22;21916;52.428;13.302;2022-11-15T19:16:05;8.20;99.90
35796;DHT22;21916;52.428;13.302;2022-11-15T19:18:32;8.10;99.90
35796;DHT22;21916;52.428;13.302;2022-11-15T19:21:06;8.10;99.90